Terminal Aerodrome Forecast
Issued by NWS Charleston, WV

Current Version | Previous Version | Graphics & Text | Print | Product List | Glossary On
Versions: 1 2 3 4 5 6 7 8 9 10 11 12 13 14 15 16 17 18 19 20 21 22 23
000
FTUS41 KRLX 300500
TAFEKN
TAF
KEKN 300530Z 3006/3106 00000KT 2SM BR SCT020
     FM300700 00000KT 1/4SM FG VV001
     FM301200 00000KT 2SM BR BKN003
     FM301300 VRB03KT P6SM SCT060
     FM301900 29006KT P6SM VCTS BKN080CB
     FM302300 VRB03KT P6SM BKN040
     FM310500 00000KT 4SM BR SCT080=

USA.gov is the U.S. government's official web portal to all federal, state and local government web resources and services.